sensor_id;sensor_type;location;lat;lon;timestamp;temperature;humidity
8886;DHT22;4479;51.162;13.906;2022-12-29T02:01:00;10.70;99.90
8886;DHT22;4479;51.162;13.906;2022-12-29T02:21:29;10.70;99.90
8886;DHT22;4479;51.162;13.906;2022-12-29T02:31:54;10.70;99.90
8886;DHT22;4479;51.162;13.906;2022-12-29T02:42:05;10.60;99.90
8886;DHT22;4479;51.162;13.906;2022-12-29T02:52:16;10.60;99.90
8886;DHT22;4479;51.162;13.906;2022-12-29T03:02:34;10.70;99.90
8886;DHT22;4479;51.162;13.906;2022-12-29T03:13:08;10.80;99.90
8886;DHT22;4479;51.162;13.906;2022-12-29T03:23:33;10.80;99.90
8886;DHT22;4479;51.162;13.906;2022-12-29T03:33:47;11.00;99.90
8886;DHT22;4479;51.162;13.906;2022-12-29T03:53:54;11.30;99.90
8886;DHT22;4479;51.162;13.906;2022-12-29T04:14:01;11.30;99.90
8886;DHT22;4479;51.162;13.906;2022-12-29T04:34:13;11.20;99.90
8886;DHT22;4479;51.162;13.906;2022-12-29T04:54:32;11.20;99.90
8886;DHT22;4479;51.162;13.906;2022-12-29T05:14:50;11.40;99.90
8886;DHT22;4479;51.162;13.906;2022-12-29T05:34:58;11.60;99.90
8886;DHT22;4479;51.162;13.906;2022-12-29T05:55:26;11.40;99.90
8886;DHT22;4479;51.162;13.906;2022-12-29T06:15:34;11.00;99.90
8886;DHT22;4479;51.162;13.906;2022-12-29T06:35:43;10.80;99.90
8886;DHT22;4479;51.162;13.906;2022-12-29T06:55:50;10.80;99.90
8886;DHT22;4479;51.162;13.906;2022-12-29T07:15:56;10.90;99.90
8886;DHT22;4479;51.162;13.906;2022-12-29T07:26:01;10.90;99.90
8886;DHT22;4479;51.162;13.906;2022-12-29T07:36:07;11.10;99.90
8886;DHT22;4479;51.162;13.906;2022-12-29T07:56:12;11.40;99.90
8886;DHT22;4479;51.162;13.906;2022-12-29T08:16:20;11.50;99.90
8886;DHT22;4479;51.162;13.906;2022-12-29T08:36:26;11.40;99.90
8886;DHT22;4479;51.162;13.906;2022-12-29T08:56:31;11.40;99.90
8886;DHT22;4479;51.162;13.906;2022-12-29T09:16:38;11.60;99.90
8886;DHT22;4479;51.162;13.906;2022-12-29T09:36:58;11.90;99.90
8886;DHT22;4479;51.162;13.906;2022-12-29T09:57:08;12.40;99.90
8886;DHT22;4479;51.162;13.906;2022-12-29T10:07:23;12.70;99.90
8886;DHT22;4479;51.162;13.906;2022-12-29T10:17:41;13.00;99.90
8886;DHT22;4479;51.162;13.906;2022-12-29T10:27:50;13.30;99.90
8886;DHT22;4479;51.162;13.906;2022-12-29T10:37:58;13.50;99.90
8886;DHT22;4479;51.162;13.906;2022-12-29T10:58:12;13.80;99.90
8886;DHT22;4479;51.162;13.906;2022-12-29T15:52:39;13.70;99.90
8886;DHT22;4479;51.162;13.906;2022-12-29T16:02:42;13.60;99.90
8886;DHT22;4479;51.162;13.906;2022-12-29T16:22:50;13.50;99.80
8886;DHT22;4479;51.162;13.906;2022-12-29T16:32:57;13.40;99.50
8886;DHT22;4479;51.162;13.906;2022-12-29T16:43:03;13.20;99.40
8886;DHT22;4479;51.162;13.906;2022-12-29T16:53:06;13.20;99.40
8886;DHT22;4479;51.162;13.906;2022-12-29T17:03:21;13.10;99.60
8886;DHT22;4479;51.162;13.906;2022-12-29T17:23:27;12.90;99.20
8886;DHT22;4479;51.162;13.906;2022-12-29T17:33:35;12.70;99.00
8886;DHT22;4479;51.162;13.906;2022-12-29T17:43:41;12.50;98.90
8886;DHT22;4479;51.162;13.906;2022-12-29T18:03:47;12.10;99.10
8886;DHT22;4479;51.162;13.906;2022-12-29T18:23:54;11.90;99.50
8886;DHT22;4479;51.162;13.906;2022-12-29T18:33:58;11.80;99.60
8886;DHT22;4479;51.162;13.906;2022-12-29T18:44:04;11.60;99.90
8886;DHT22;4479;51.162;13.906;2022-12-29T18:54:10;11.60;99.90
8886;DHT22;4479;51.162;13.906;2022-12-29T19:04:16;11.60;99.90
8886;DHT22;4479;51.162;13.906;2022-12-29T19:24:22;11.60;99.90
8886;DHT22;4479;51.162;13.906;2022-12-29T19:44:28;11.80;99.90
8886;DHT22;4479;51.162;13.906;2022-12-29T20:04:34;12.00;99.90
8886;DHT22;4479;51.162;13.906;2022-12-29T20:24:40;12.00;99.90
8886;DHT22;4479;51.162;13.906;2022-12-29T20:34:43;12.00;99.90
8886;DHT22;4479;51.162;13.906;2022-12-29T20:44:46;12.00;99.90
8886;DHT22;4479;51.162;13.906;2022-12-29T21:45:08;11.20;99.90
8886;DHT22;4479;51.162;13.906;2022-12-29T22:16:10;10.80;99.90
8886;DHT22;4479;51.162;13.906;2022-12-29T22:26:21;10.90;99.90
8886;DHT22;4479;51.162;13.906;2022-12-29T22:36:25;10.90;99.90
8886;DHT22;4479;51.162;13.906;2022-12-29T23:06:42;10.90;99.90
8886;DHT22;4479;51.162;13.906;2022-12-29T23:37:32;10.90;99.90
8886;DHT22;4479;51.162;13.906;2022-12-29T23:47:36;10.80;99.90
